TimePST,TemperatureF,Dew PointF,Humidity,Sea Level PressureIn,VisibilityMPH,Wind Direction,Wind SpeedMPH,Gust SpeedMPH,PrecipitationIn,Events,Conditions,WindDirDegrees,DateUTC
12:01 AM,42.8,39.2,87,30.11,10.0,South,11.5,-,N/A,,Overcast,190,2012-12-11 08:01:00
12:42 AM,42.8,39.2,87,30.06,10.0,South,11.5,-,N/A,,Overcast,170,2012-12-11 08:42:00
12:53 AM,43.0,39.9,89,30.06,10.0,South,9.2,-,N/A,,Overcast,170,2012-12-11 08:53:00
1:17 AM,42.8,39.2,87,30.03,10.0,SSW,8.1,-,N/A,,Overcast,200,2012-12-11 09:17:00
1:53 AM,43.0,39.0,86,30.01,10.0,SSW,11.5,18.4,N/A,,Overcast,210,2012-12-11 09:53:00
2:48 AM,42.8,39.2,87,29.96,10.0,SSW,10.4,-,N/A,,Overcast,210,2012-12-11 10:48:00
2:53 AM,42.1,39.0,89,29.97,10.0,SSW,10.4,17.3,N/A,,Overcast,200,2012-12-11 10:53:00
3:53 AM,43.0,39.0,86,29.95,10.0,SW,10.4,19.6,N/A,,Overcast,220,2012-12-11 11:53:00
4:38 AM,42.8,37.4,81,29.91,10.0,South,9.2,-,N/A,,Overcast,170,2012-12-11 12:38:00
4:53 AM,42.1,39.0,89,29.91,10.0,South,10.4,-,N/A,,Overcast,180,2012-12-11 12:53:00
5:08 AM,42.8,39.2,87,29.89,10.0,South,13.8,-,N/A,,Overcast,190,2012-12-11 13:08:00
5:48 AM,42.8,39.2,87,29.86,10.0,South,12.7,-,N/A,,Overcast,180,2012-12-11 13:48:00
5:53 AM,43.0,39.0,86,29.87,10.0,South,12.7,-,N/A,,Overcast,180,2012-12-11 13:53:00
6:21 AM,42.8,39.2,87,29.85,10.0,South,12.7,20.7,N/A,,Overcast,180,2012-12-11 14:21:00
6:37 AM,42.8,39.2,87,29.84,8.0,South,13.8,-,N/A,,Overcast,180,2012-12-11 14:37:00
6:53 AM,42.1,39.0,89,29.84,10.0,South,11.5,-,N/A,,Overcast,180,2012-12-11 14:53:00
7:12 AM,42.8,39.2,87,29.81,10.0,South,15.0,-,N/A,,Overcast,170,2012-12-11 15:12:00
7:53 AM,43.0,39.0,86,29.79,10.0,South,11.5,-,N/A,,Overcast,180,2012-12-11 15:53:00
8:04 AM,42.8,39.2,87,29.78,10.0,South,11.5,18.4,N/A,,Overcast,180,2012-12-11 16:04:00
8:53 AM,44.1,39.0,82,29.76,10.0,South,8.1,-,N/A,,Overcast,180,2012-12-11 16:53:00
9:53 AM,44.1,39.9,85,29.74,10.0,SSW,10.4,19.6,N/A,,Overcast,200,2012-12-11 17:53:00
10:53 AM,45.0,39.0,80,29.71,10.0,South,15.0,21.9,0.01,Rain,Light Rain,180,2012-12-11 18:53:00
11:53 AM,45.0,39.0,80,29.66,10.0,South,13.8,20.7,0.00,,Overcast,180,2012-12-11 19:53:00
12:53 PM,46.0,39.0,76,29.63,10.0,South,11.5,19.6,0.00,Rain,Light Rain,180,2012-12-11 20:53:00
1:15 PM,44.6,39.2,81,29.61,6.0,South,12.7,-,0.02,Rain,Light Rain,190,2012-12-11 21:15:00
1:53 PM,45.0,39.9,82,29.60,9.0,South,10.4,-,0.07,Rain,Light Rain,190,2012-12-11 21:53:00
2:53 PM,44.1,39.0,82,29.57,10.0,South,11.5,21.9,0.04,Rain,Light Rain,170,2012-12-11 22:53:00
3:48 PM,44.6,39.2,81,29.55,10.0,South,10.4,-,0.00,,Overcast,170,2012-12-11 23:48:00
3:53 PM,44.1,37.9,79,29.56,10.0,South,10.4,-,0.00,,Overcast,170,2012-12-11 23:53:00
4:53 PM,44.1,37.9,79,29.56,10.0,South,15.0,-,N/A,,Overcast,180,2012-12-12 00:53:00
5:53 PM,44.1,37.9,79,29.57,10.0,South,20.7,26.5,N/A,,Overcast,180,2012-12-12 01:53:00
6:53 PM,43.0,37.9,82,29.57,10.0,South,13.8,20.7,N/A,,Overcast,190,2012-12-12 02:53:00
7:53 PM,43.0,39.0,86,29.57,10.0,SSW,11.5,18.4,N/A,,Overcast,200,2012-12-12 03:53:00
8:53 PM,44.1,39.0,82,29.59,10.0,South,11.5,-,N/A,,Overcast,180,2012-12-12 04:53:00
9:53 PM,43.0,39.0,86,29.60,10.0,South,10.4,-,N/A,,Overcast,190,2012-12-12 05:53:00
10:07 PM,42.8,39.2,87,29.59,10.0,South,10.4,-,N/A,,Overcast,190,2012-12-12 06:07:00
10:53 PM,43.0,39.0,86,29.61,10.0,SSW,10.4,-,N/A,,Overcast,200,2012-12-12 06:53:00
11:22 PM,44.6,39.2,81,29.61,10.0,South,8.1,-,N/A,,Overcast,190,2012-12-12 07:22:00
11:53 PM,43.0,39.0,86,29.62,10.0,SSW,11.5,-,N/A,,Overcast,200,2012-12-12 07:53:00